createdAt,value
2022-11-19T00:02:40.805Z,8.35
2022-11-19T00:07:44.533Z,9.50
2022-11-19T00:12:55.447Z,9.82
2022-11-19T00:17:59.334Z,9.40
2022-11-19T00:23:03.412Z,9.00
2022-11-19T00:28:08.523Z,9.75
2022-11-19T00:33:12.317Z,9.70
2022-11-19T00:38:15.971Z,10.45
2022-11-19T00:43:38.778Z,10.40
2022-11-19T00:48:42.588Z,9.55
2022-11-19T00:53:46.706Z,11.82
2022-11-19T00:58:52.257Z,11.23
2022-11-19T01:03:56.222Z,10.65
2022-11-19T01:09:00.210Z,9.60
2022-11-19T01:14:06.952Z,9.75
2022-11-19T01:19:12.345Z,9.80
2022-11-19T01:24:15.986Z,8.38
2022-11-19T01:29:21.132Z,8.10
2022-11-19T01:34:24.949Z,7.65
2022-11-19T01:39:28.914Z,6.63
2022-11-19T01:45:01.360Z,8.30
2022-11-19T01:50:05.624Z,8.63
2022-11-19T01:55:10.760Z,7.65
2022-11-19T02:00:17.250Z,8.45
2022-11-19T02:05:21.599Z,8.60
2022-11-19T02:10:45.784Z,9.73
2022-11-19T02:15:57.476Z,8.45
2022-11-19T02:21:12.665Z,8.93
2022-11-19T02:27:00.912Z,8.68
2022-11-19T02:32:14.742Z,8.50
2022-11-19T02:37:26.940Z,8.88
2022-11-19T02:42:36.160Z,8.82
2022-11-19T02:47:45.072Z,7.82
2022-11-19T02:52:49.553Z,8.05
2022-11-19T02:57:59.685Z,8.43
2022-11-19T03:03:27.733Z,8.27
2022-11-19T03:08:31.436Z,8.57
2022-11-19T03:14:04.946Z,8.10
2022-11-19T03:19:15.460Z,7.50
2022-11-19T03:24:24.291Z,6.57
2022-11-19T03:29:30.532Z,6.15
2022-11-19T03:34:37.249Z,7.50
2022-11-19T03:39:43.280Z,6.30
2022-11-19T03:44:51.815Z,7.47
2022-11-19T03:50:02.405Z,6.80
2022-11-19T03:55:06.532Z,7.55
2022-11-19T04:00:11.414Z,7.72
2022-11-19T04:05:20.150Z,7.90
2022-11-19T04:10:23.783Z,8.10
2022-11-19T04:15:27.746Z,8.45
2022-11-19T04:20:32.746Z,8.20
2022-11-19T04:25:36.390Z,8.15
2022-11-19T04:30:39.976Z,8.15
2022-11-19T04:35:47.331Z,7.97
2022-11-19T04:40:50.964Z,8.30
2022-11-19T04:45:54.554Z,9.18
2022-11-19T04:50:59.617Z,8.38
2022-11-19T04:56:03.263Z,8.82
2022-11-19T05:01:07.252Z,9.60
2022-11-19T05:06:12.337Z,10.30
2022-11-19T05:11:16.059Z,10.32
2022-11-19T05:16:19.689Z,9.70
2022-11-19T05:21:24.679Z,10.95
2022-11-19T05:26:28.393Z,10.45
2022-11-19T05:31:32.123Z,11.30
2022-11-19T05:36:37.170Z,11.02
2022-11-19T05:41:40.849Z,10.93
2022-11-19T05:46:44.486Z,11.52
2022-11-19T05:51:49.555Z,13.30
2022-11-19T05:56:53.212Z,12.43
2022-11-19T06:01:56.836Z,12.70
2022-11-19T06:07:01.954Z,13.45
2022-11-19T06:12:06.197Z,12.80
2022-11-19T06:17:09.872Z,13.88
2022-11-19T06:22:14.867Z,13.00
2022-11-19T06:27:18.650Z,12.82
2022-11-19T06:32:22.345Z,13.63
2022-11-19T06:37:27.376Z,13.63
2022-11-19T06:42:39.794Z,13.48
2022-11-19T06:47:43.706Z,13.70
2022-11-19T06:52:48.725Z,13.40
2022-11-19T06:57:52.452Z,13.77
2022-11-19T07:02:56.179Z,15.00
2022-11-19T07:08:03.258Z,13.25
2022-11-19T07:13:07.356Z,15.07
2022-11-19T07:18:11.598Z,14.82
2022-11-19T07:23:16.698Z,14.50
2022-11-19T07:28:20.369Z,15.07
2022-11-19T07:33:24.030Z,15.77
2022-11-19T07:38:32.765Z,15.98
2022-11-19T07:43:39.378Z,15.27
2022-11-19T07:48:42.986Z,15.48
2022-11-19T07:53:48.073Z,15.27
2022-11-19T07:58:51.863Z,15.88
2022-11-19T08:03:56.833Z,14.77
2022-11-19T08:09:03.384Z,15.30
2022-11-19T08:14:07.311Z,15.93
2022-11-19T08:19:13.990Z,16.17
2022-11-19T08:24:21.436Z,15.57
2022-11-19T08:29:25.391Z,16.42
2022-11-19T08:34:29.266Z,17.20
2022-11-19T08:39:34.546Z,18.35
2022-11-19T08:44:38.322Z,16.85
2022-11-19T08:49:41.999Z,17.40
2022-11-19T08:54:46.964Z,15.57
2022-11-19T08:59:52.168Z,15.43
2022-11-19T09:04:55.922Z,16.15
2022-11-19T09:10:01.026Z,15.30
2022-11-19T09:15:05.260Z,18.33
2022-11-19T09:20:10.050Z,16.48
2022-11-19T09:25:15.274Z,16.13
2022-11-19T09:30:18.960Z,17.98
2022-11-19T09:35:22.710Z,16.75
2022-11-19T09:40:28.010Z,20.40
2022-11-19T09:45:45.560Z,16.38
2022-11-19T09:50:54.417Z,16.10
2022-11-19T09:56:01.134Z,15.00
2022-11-19T10:01:05.180Z,15.13
2022-11-19T10:06:24.453Z,15.32
2022-11-19T10:11:41.052Z,15.52
2022-11-19T10:17:01.305Z,14.32
2022-11-19T10:22:11.223Z,15.07
2022-11-19T10:27:29.662Z,13.80
2022-11-19T10:32:36.779Z,13.98
2022-11-19T10:42:50.739Z,14.57
2022-11-19T10:48:08.938Z,13.57
2022-11-19T10:53:17.527Z,14.27
2022-11-19T10:58:27.075Z,14.98
2022-11-19T11:03:35.628Z,15.10
2022-11-19T11:08:49.685Z,14.73
2022-11-19T11:14:12.548Z,14.60
2022-11-19T11:19:18.978Z,13.93
2022-11-19T11:24:31.228Z,13.38
2022-11-19T11:29:36.337Z,13.90
2022-11-19T11:34:44.197Z,13.05
2022-11-19T11:39:51.596Z,13.23
2022-11-19T11:44:58.943Z,13.27
2022-11-19T11:50:09.298Z,13.48
2022-11-19T11:55:15.903Z,13.38
2022-11-19T12:00:38.706Z,13.38
2022-11-19T12:05:52.297Z,13.43
2022-11-19T12:11:01.829Z,13.02
2022-11-19T12:16:12.132Z,11.93
2022-11-19T12:21:29.223Z,11.95
2022-11-19T12:26:42.592Z,12.55
2022-11-19T12:32:01.494Z,12.93
2022-11-19T12:37:21.006Z,12.50
2022-11-19T12:42:43.409Z,11.57
2022-11-19T12:48:05.774Z,10.63
2022-11-19T12:53:45.046Z,11.85
2022-11-19T12:58:58.819Z,12.10
2022-11-19T13:04:11.638Z,10.43
2022-11-19T13:09:19.677Z,10.30
2022-11-19T13:14:34.920Z,10.05
2022-11-19T13:19:41.232Z,9.88
2022-11-19T13:24:47.846Z,11.67
2022-11-19T13:29:56.106Z,10.18
2022-11-19T13:35:13.136Z,9.30
2022-11-19T13:40:26.764Z,10.10
2022-11-19T13:45:31.359Z,9.63
2022-11-19T13:50:43.860Z,9.50
2022-11-19T13:55:48.676Z,9.73
2022-11-19T14:01:36.153Z,9.93
2022-11-19T14:06:54.619Z,8.98
2022-11-19T14:12:23.167Z,10.82
2022-11-19T14:17:54.941Z,11.82
2022-11-19T14:23:17.615Z,11.15
2022-11-19T14:28:47.123Z,8.45
2022-11-19T14:34:04.221Z,9.23
2022-11-19T14:39:18.527Z,9.23
2022-11-19T14:44:36.086Z,10.13
2022-11-19T14:49:41.207Z,9.75
2022-11-19T14:54:46.800Z,9.68
2022-11-19T14:59:53.851Z,11.57
2022-11-19T15:10:30.292Z,10.25
2022-11-19T15:15:41.890Z,15.40
2022-11-19T15:21:04.555Z,10.57
2022-11-19T15:26:20.318Z,8.13
2022-11-19T15:31:41.573Z,9.27
2022-11-19T15:36:47.783Z,10.13
2022-11-19T15:42:02.587Z,11.10
2022-11-19T15:47:12.815Z,10.75
2022-11-19T15:52:22.967Z,10.60
2022-11-19T15:57:28.579Z,8.75
2022-11-19T16:02:37.642Z,11.90
2022-11-19T16:07:41.835Z,9.48
2022-11-19T16:13:14.133Z,8.43
2022-11-19T16:18:20.445Z,8.90
2022-11-19T16:23:25.740Z,7.77
2022-11-19T16:28:31.510Z,7.80
2022-11-19T16:33:35.964Z,7.97
2022-11-19T16:38:41.971Z,7.80
2022-11-19T16:43:48.966Z,7.65
2022-11-19T16:54:01.269Z,7.38
2022-11-19T16:59:07.398Z,8.65
2022-11-19T17:04:15.625Z,7.17
2022-11-19T17:09:33.223Z,8.07
2022-11-19T17:15:00.551Z,8.43
2022-11-19T17:20:04.900Z,8.05
2022-11-19T17:25:14.755Z,7.43
2022-11-19T17:30:25.249Z,8.38
2022-11-19T17:35:34.337Z,10.55
2022-11-19T17:40:38.089Z,9.55
2022-11-19T17:45:43.114Z,9.20
2022-11-19T17:50:46.737Z,8.40
2022-11-19T17:55:52.699Z,9.13
2022-11-19T18:00:57.696Z,7.68
2022-11-19T18:06:02.457Z,7.75
2022-11-19T18:11:07.145Z,9.50
2022-11-19T18:16:14.949Z,8.35
2022-11-19T18:21:20.618Z,8.95
2022-11-19T18:26:24.830Z,7.03
2022-11-19T18:31:30.039Z,6.70
2022-11-19T18:36:33.733Z,5.80
2022-11-19T18:41:37.663Z,5.72
2022-11-19T18:46:42.761Z,7.78
2022-11-19T18:51:47.615Z,11.50
2022-11-19T18:56:51.338Z,7.22
2022-11-19T19:01:56.566Z,7.25
2022-11-19T19:07:00.403Z,9.50
2022-11-19T19:12:19.175Z,8.32
2022-11-19T19:17:24.216Z,12.32
2022-11-19T19:22:27.895Z,7.28
2022-11-19T19:27:31.879Z,7.20
2022-11-19T19:32:36.957Z,8.65
2022-11-19T19:37:42.474Z,8.52
2022-11-19T19:42:46.165Z,7.10
2022-11-19T19:47:51.298Z,7.05
2022-11-19T19:52:54.997Z,6.75
2022-11-19T19:57:59.949Z,7.00
2022-11-19T20:03:05.267Z,8.40
2022-11-19T20:08:08.900Z,6.35
2022-11-19T20:13:32.088Z,6.85
2022-11-19T20:18:38.242Z,7.90
2022-11-19T20:23:42.735Z,6.90
2022-11-19T20:28:46.963Z,6.43
2022-11-19T20:33:55.802Z,5.85
2022-11-19T20:38:59.587Z,5.90
2022-11-19T20:44:27.506Z,6.13
2022-11-19T20:49:39.859Z,7.13
2022-11-19T20:54:43.577Z,9.85
2022-11-19T20:59:47.227Z,6.53
2022-11-19T21:04:52.344Z,6.25
2022-11-19T21:09:56.871Z,7.25
2022-11-19T21:15:02.068Z,5.95
2022-11-19T21:20:08.575Z,5.78
2022-11-19T21:25:12.698Z,6.00
2022-11-19T21:30:18.596Z,4.70
2022-11-19T21:35:23.736Z,5.40
2022-11-19T21:40:27.552Z,6.07
2022-11-19T21:45:31.347Z,5.82
2022-11-19T21:50:40.389Z,7.55
2022-11-19T21:55:44.604Z,6.28
2022-11-19T22:00:48.369Z,6.00
2022-11-19T22:06:01.464Z,6.38
2022-11-19T22:11:26.381Z,6.28
2022-11-19T22:16:30.734Z,5.60
2022-11-19T22:21:36.373Z,5.28
2022-11-19T22:26:40.129Z,4.97
2022-11-19T22:31:43.806Z,4.80
2022-11-19T22:36:48.814Z,6.00
2022-11-19T22:41:52.653Z,5.55
2022-11-19T22:46:58.605Z,4.82
2022-11-19T22:52:03.847Z,5.70
2022-11-19T22:57:07.740Z,5.88
2022-11-19T23:02:11.377Z,5.30
2022-11-19T23:07:16.478Z,5.65
2022-11-19T23:12:37.449Z,5.20
2022-11-19T23:17:43.398Z,5.00
2022-11-19T23:22:48.407Z,5.07
2022-11-19T23:27:52.122Z,5.43
2022-11-19T23:32:55.774Z,5.20
2022-11-19T23:38:00.858Z,5.80
2022-11-19T23:43:04.819Z,5.43
2022-11-19T23:48:08.767Z,5.38
2022-11-19T23:53:13.866Z,5.68
2022-11-19T23:58:17.532Z,5.43
